createdAt,value
2023-05-03T05:03:17.651Z,25.00
2023-05-03T05:04:18.492Z,25.00
2023-05-03T05:05:20.246Z,25.00
2023-05-03T05:06:17.542Z,25.00
2023-05-03T05:07:18.520Z,25.00
2023-05-03T05:08:18.513Z,25.00
2023-05-03T05:09:18.523Z,0.00
2023-05-03T05:10:17.528Z,0.00
2023-05-03T05:11:18.464Z,0.00
2023-05-03T05:12:17.491Z,0.00
2023-05-03T05:13:17.455Z,0.00
2023-05-03T05:14:17.430Z,0.00
2023-05-03T05:15:17.441Z,0.00
2023-05-03T05:16:17.486Z,0.00
2023-05-03T05:17:17.504Z,0.00
2023-05-03T05:18:18.438Z,0.00
2023-05-03T05:19:18.447Z,0.00
2023-05-03T05:20:18.428Z,0.00
2023-05-03T05:21:18.405Z,0.00
2023-05-03T05:22:17.397Z,0.00
2023-05-03T05:23:17.384Z,0.00
2023-05-03T05:24:18.399Z,0.00
2023-05-03T05:25:18.414Z,7.02
2023-05-03T05:26:18.370Z,7.04
2023-05-03T05:27:18.483Z,21.25
2023-05-03T05:28:17.382Z,27.49
2023-05-03T05:29:18.347Z,26.70
2023-05-03T05:30:18.524Z,27.64
2023-05-03T05:31:18.514Z,29.65
2023-05-03T05:32:17.419Z,26.60
2023-05-03T05:33:18.926Z,25.00
2023-05-03T05:34:17.291Z,30.15
2023-05-03T05:35:18.318Z,31.43
2023-05-03T05:36:18.301Z,31.53
2023-05-03T05:37:18.292Z,27.54
2023-05-03T05:38:17.285Z,25.00
2023-05-03T05:39:18.260Z,29.89
2023-05-03T05:40:18.258Z,27.37
2023-05-03T05:41:18.254Z,29.74
2023-05-03T05:42:18.411Z,23.97
2023-05-03T05:43:18.243Z,25.00
2023-05-03T05:44:18.244Z,26.93
2023-05-03T05:45:18.227Z,27.20
2023-05-03T05:46:17.268Z,27.72
2023-05-03T05:47:17.516Z,29.96
2023-05-03T05:48:18.482Z,30.34
2023-05-03T05:49:17.447Z,31.43
2023-05-03T05:50:19.012Z,28.09
2023-05-03T05:51:18.534Z,34.77
2023-05-03T05:52:17.620Z,31.85
2023-05-03T05:53:18.582Z,34.15
2023-05-03T05:54:17.586Z,52.42
2023-05-03T05:55:17.704Z,54.49
2023-05-03T05:56:18.616Z,58.15
2023-05-03T05:57:17.692Z,62.00
2023-05-03T05:58:18.754Z,74.83
2023-05-03T05:59:17.750Z,67.82
2023-05-03T06:00:18.849Z,56.92
2023-05-03T06:01:17.865Z,54.12
2023-05-03T06:02:19.045Z,47.85
2023-05-03T06:03:18.915Z,50.95
2023-05-03T06:04:18.960Z,43.78
2023-05-03T06:05:18.966Z,50.52
2023-05-03T06:06:18.994Z,45.25
2023-05-03T06:07:18.008Z,42.88
2023-05-03T06:08:19.099Z,43.59
2023-05-03T06:10:17.954Z,47.04
2023-05-03T06:11:18.931Z,44.53
2023-05-03T06:12:18.955Z,37.88
2023-05-03T06:13:18.959Z,38.76
2023-05-03T06:14:19.021Z,44.61
2023-05-03T06:15:18.080Z,42.00
2023-05-03T06:16:19.198Z,41.11
2023-05-03T06:17:18.419Z,34.90
2023-05-03T06:18:18.399Z,37.92
2023-05-03T06:19:19.380Z,36.48
2023-05-03T06:20:18.386Z,38.44
2023-05-03T06:21:19.448Z,38.19
2023-05-03T06:22:19.532Z,34.91
2023-05-03T06:23:19.643Z,33.98
2023-05-03T06:24:19.704Z,35.49
2023-05-03T06:25:18.704Z,33.26
2023-05-03T06:26:19.750Z,36.32
2023-05-03T06:27:19.770Z,38.31
2023-05-03T06:28:19.833Z,39.26
2023-05-03T06:29:19.916Z,37.33
2023-05-03T06:30:19.978Z,34.29
2023-05-03T06:31:20.010Z,35.40
2023-05-03T06:32:20.051Z,40.16
2023-05-03T06:33:20.075Z,37.02
2023-05-03T06:34:20.156Z,35.52
2023-05-03T06:35:20.214Z,44.15
2023-05-03T06:36:20.203Z,51.53
2023-05-03T06:37:19.215Z,51.16
2023-05-03T06:38:20.235Z,59.57
2023-05-03T06:39:19.380Z,62.59
2023-05-03T06:40:19.324Z,71.34
2023-05-03T06:41:19.324Z,72.89
2023-05-03T06:42:20.402Z,72.60
2023-05-03T06:43:20.508Z,80.38
2023-05-03T06:44:20.490Z,83.31
2023-05-03T06:45:20.523Z,90.47
2023-05-03T06:46:20.790Z,90.52
2023-05-03T06:47:19.593Z,97.25
2023-05-03T06:48:20.708Z,115.95
2023-05-03T06:49:19.998Z,108.53
2023-05-03T06:50:20.616Z,106.54
2023-05-03T06:51:19.609Z,116.11
2023-05-03T06:52:21.018Z,126.50
2023-05-03T06:53:20.653Z,145.62
2023-05-03T06:54:20.627Z,160.96
2023-05-03T06:55:19.877Z,163.83
2023-05-03T06:56:19.642Z,160.10
2023-05-03T06:57:20.001Z,162.81
2023-05-03T06:58:20.635Z,157.70
2023-05-03T06:59:20.627Z,168.40
2023-05-03T07:00:19.964Z,167.37
2023-05-03T07:01:19.655Z,164.72
2023-05-03T07:02:20.654Z,158.51
2023-05-03T07:03:20.694Z,167.03
2023-05-03T07:04:19.709Z,165.17
2023-05-03T07:05:20.638Z,151.79
2023-05-03T07:06:19.640Z,161.91
2023-05-03T07:07:19.739Z,162.43
2023-05-03T07:08:20.675Z,166.21
2023-05-03T07:09:28.704Z,170.89
2023-05-03T07:10:20.651Z,171.20
2023-05-03T07:11:20.663Z,163.51
2023-05-03T07:12:19.637Z,161.22
2023-05-03T07:13:19.624Z,156.52
2023-05-03T07:14:19.665Z,160.14
2023-05-03T07:15:20.603Z,152.71
2023-05-03T07:16:20.657Z,169.34
2023-05-03T07:17:20.601Z,162.26
2023-05-03T07:18:20.579Z,160.99
2023-05-03T07:19:19.616Z,160.75
2023-05-03T07:20:20.584Z,165.11
2023-05-03T07:21:19.595Z,170.83
2023-05-03T07:22:20.582Z,164.89
2023-05-03T07:23:20.538Z,163.51
2023-05-03T07:24:20.552Z,164.77
2023-05-03T07:25:20.556Z,161.00
2023-05-03T07:26:20.546Z,154.49
2023-05-03T07:27:19.540Z,152.16
2023-05-03T07:28:20.505Z,161.09
2023-05-03T07:29:20.499Z,160.05
2023-05-03T07:30:20.492Z,157.40
2023-05-03T07:31:20.507Z,162.15
2023-05-03T07:32:19.514Z,161.45
2023-05-03T07:33:19.600Z,161.78
2023-05-03T07:34:19.460Z,168.20
2023-05-03T07:35:19.480Z,171.32
2023-05-03T07:36:20.498Z,165.99
2023-05-03T07:37:20.529Z,164.82
2023-05-03T07:38:19.564Z,156.52
2023-05-03T07:39:19.642Z,162.89
2023-05-03T07:40:20.698Z,164.06
2023-05-03T07:41:20.662Z,169.09
2023-05-03T07:42:20.756Z,164.55
2023-05-03T07:43:21.177Z,162.12
2023-05-03T07:44:20.785Z,136.22
2023-05-03T07:45:19.821Z,165.67
2023-05-03T07:46:19.889Z,149.67
2023-05-03T07:47:19.912Z,145.10
2023-05-03T07:48:20.999Z,167.28
2023-05-03T07:49:21.037Z,166.97
2023-05-03T07:50:20.081Z,167.65
2023-05-03T07:51:21.242Z,173.04
2023-05-03T07:52:21.173Z,166.59
2023-05-03T07:53:21.530Z,149.52
2023-05-03T07:54:21.262Z,156.09
2023-05-03T07:55:21.274Z,146.39
2023-05-03T07:56:21.263Z,145.08
2023-05-03T07:57:21.288Z,133.16
2023-05-03T07:58:25.409Z,111.76
2023-05-03T07:59:21.414Z,111.96
2023-05-03T08:00:21.275Z,112.21
2023-05-03T08:01:20.293Z,111.92
2023-05-03T08:02:21.364Z,110.68
2023-05-03T08:03:21.484Z,105.12
2023-05-03T08:04:21.741Z,96.07
2023-05-03T08:05:20.306Z,106.32
2023-05-03T08:06:21.268Z,97.86
2023-05-03T08:07:21.256Z,82.59
2023-05-03T08:08:21.250Z,89.13
2023-05-03T08:09:21.241Z,82.68
2023-05-03T08:10:21.289Z,64.90
2023-05-03T08:11:20.367Z,62.92
2023-05-03T08:12:20.343Z,81.89
2023-05-03T08:13:20.365Z,73.40
2023-05-03T08:14:21.397Z,78.60
2023-05-03T08:15:21.480Z,68.16
2023-05-03T08:16:20.556Z,57.00
2023-05-03T08:17:21.610Z,61.38
2023-05-03T08:18:23.719Z,71.16
2023-05-03T08:19:21.648Z,74.68
2023-05-03T08:20:21.614Z,82.69
2023-05-03T08:21:20.640Z,76.02
2023-05-03T08:22:21.664Z,90.62
2023-05-03T08:23:20.578Z,90.99
2023-05-03T08:24:21.683Z,72.41
2023-05-03T08:25:21.558Z,90.81
2023-05-03T08:26:20.570Z,90.50
2023-05-03T08:27:21.553Z,90.38
2023-05-03T08:28:20.571Z,93.38
2023-05-03T08:29:21.519Z,105.39
2023-05-03T08:30:20.676Z,109.42
2023-05-03T08:31:21.679Z,107.53
2023-05-03T08:32:21.529Z,86.44
2023-05-03T08:33:21.749Z,95.09
2023-05-03T08:34:21.548Z,86.12
2023-05-03T08:35:20.513Z,91.31
2023-05-03T08:36:21.530Z,103.22
2023-05-03T08:37:21.471Z,106.03
2023-05-03T08:38:21.471Z,103.24
2023-05-03T08:39:20.485Z,102.62
2023-05-03T08:40:20.472Z,90.90
2023-05-03T08:41:21.997Z,89.27
2023-05-03T08:42:20.454Z,102.61
2023-05-03T08:43:21.528Z,102.48
2023-05-03T08:44:20.411Z,109.44
2023-05-03T08:45:21.446Z,108.62
2023-05-03T08:46:21.425Z,110.55
2023-05-03T08:47:20.610Z,138.49
2023-05-03T08:48:21.470Z,136.94
2023-05-03T08:49:21.602Z,161.59
2023-05-03T08:50:21.415Z,140.78
2023-05-03T08:51:20.347Z,153.50
2023-05-03T08:52:21.631Z,163.41
2023-05-03T08:53:21.360Z,161.11
2023-05-03T08:54:20.344Z,206.98
2023-05-03T08:55:20.432Z,177.09
2023-05-03T08:56:21.398Z,162.35
2023-05-03T08:57:21.384Z,153.44
2023-05-03T08:58:20.571Z,160.42
2023-05-03T08:59:21.391Z,159.17
2023-05-03T09:00:21.447Z,168.14
2023-05-03T09:01:20.479Z,159.19
2023-05-03T09:02:21.448Z,173.20
2023-05-03T09:03:21.532Z,171.16
2023-05-03T09:04:21.478Z,172.71
2023-05-03T09:05:20.372Z,169.15
2023-05-03T09:06:21.453Z,171.27
2023-05-03T09:07:21.381Z,158.17
2023-05-03T09:08:20.399Z,162.12
2023-05-03T09:09:20.418Z,160.41
2023-05-03T09:10:21.452Z,160.20
2023-05-03T09:11:21.443Z,165.09
2023-05-03T09:12:21.421Z,155.53
2023-05-03T09:13:21.469Z,158.84
2023-05-03T09:14:21.496Z,158.19
2023-05-03T09:15:21.751Z,165.01
2023-05-03T09:16:20.476Z,165.29
2023-05-03T09:17:21.502Z,157.03
2023-05-03T09:18:21.631Z,156.41
2023-05-03T09:19:20.515Z,153.60
2023-05-03T09:20:20.521Z,153.98
2023-05-03T09:21:20.520Z,155.98
2023-05-03T09:22:20.515Z,159.51
2023-05-03T09:23:21.540Z,156.24
2023-05-03T09:24:21.548Z,152.24
2023-05-03T09:25:20.609Z,163.22
2023-05-03T09:26:20.553Z,164.28
2023-05-03T09:27:20.614Z,157.96
2023-05-03T09:28:20.654Z,157.51
2023-05-03T09:29:21.612Z,154.56
2023-05-03T09:30:21.668Z,152.35
2023-05-03T09:31:21.734Z,146.59
2023-05-03T09:32:21.758Z,154.54
2023-05-03T09:33:20.762Z,149.13
2023-05-03T09:34:21.810Z,149.33
2023-05-03T09:35:21.887Z,150.96
2023-05-03T09:36:21.856Z,153.36
2023-05-03T09:37:20.874Z,149.73
2023-05-03T09:38:21.967Z,151.82
2023-05-03T09:39:21.946Z,153.00
2023-05-03T09:40:21.972Z,149.53
2023-05-03T09:41:21.980Z,156.60
2023-05-03T09:42:22.005Z,150.36
2023-05-03T09:43:22.143Z,149.12
2023-05-03T09:44:21.062Z,154.93
2023-05-03T09:45:21.073Z,153.54
2023-05-03T09:46:22.128Z,156.07
2023-05-03T09:47:21.129Z,162.25
2023-05-03T09:48:23.059Z,157.59
2023-05-03T09:49:21.177Z,155.32
2023-05-03T09:50:21.233Z,117.26
2023-05-03T09:51:22.344Z,111.64
2023-05-03T09:52:22.259Z,103.77
2023-05-03T09:53:22.554Z,130.19
2023-05-03T09:54:23.605Z,135.33
2023-05-03T09:55:22.345Z,145.08
2023-05-03T09:56:21.369Z,158.73
2023-05-03T09:57:21.347Z,145.67
2023-05-03T09:58:22.338Z,146.94
2023-05-03T09:59:21.356Z,170.00
2023-05-03T10:00:21.500Z,162.35
2023-05-03T10:01:22.410Z,154.56
2023-05-03T10:02:21.423Z,164.06
2023-05-03T10:03:22.457Z,168.09
2023-05-03T10:04:21.497Z,178.29
2023-05-03T10:05:21.570Z,178.71
2023-05-03T10:06:22.709Z,179.08
2023-05-03T10:07:21.651Z,181.70
2023-05-03T10:08:22.673Z,193.36
2023-05-03T10:09:22.746Z,176.71
2023-05-03T10:10:22.783Z,183.19
2023-05-03T10:11:22.777Z,188.34
2023-05-03T10:12:21.793Z,179.82
2023-05-03T10:13:24.148Z,187.04
2023-05-03T10:14:21.931Z,187.35
2023-05-03T10:15:22.963Z,187.06
2023-05-03T10:16:21.938Z,197.03
2023-05-03T10:17:32.004Z,197.93
2023-05-03T10:18:23.020Z,198.22
2023-05-03T10:19:22.940Z,198.17
2023-05-03T10:20:22.917Z,199.07
2023-05-03T10:21:22.932Z,200.75
2023-05-03T10:22:21.977Z,198.03
2023-05-03T10:23:22.924Z,197.67
2023-05-03T10:24:21.922Z,192.66
2023-05-03T10:25:22.896Z,192.80
2023-05-03T10:26:22.907Z,188.96
2023-05-03T10:27:22.877Z,197.18
2023-05-03T10:28:21.866Z,199.20
2023-05-03T10:29:22.828Z,212.40
2023-05-03T10:30:22.835Z,202.27
2023-05-03T10:31:21.870Z,202.90
2023-05-03T10:32:22.948Z,213.40
2023-05-03T10:33:21.836Z,203.60
2023-05-03T10:34:21.831Z,195.80
2023-05-03T10:35:22.783Z,211.41
2023-05-03T10:36:22.892Z,203.58
2023-05-03T10:37:22.782Z,204.37
2023-05-03T10:38:22.795Z,207.64
2023-05-03T10:39:21.790Z,209.80
2023-05-03T10:40:22.750Z,197.30
2023-05-03T10:41:21.775Z,194.78
2023-05-03T10:42:22.740Z,206.66
2023-05-03T10:43:22.079Z,208.29
2023-05-03T10:44:22.721Z,210.06
2023-05-03T10:45:22.715Z,214.63
2023-05-03T10:46:22.813Z,207.07
2023-05-03T10:47:21.850Z,207.58
2023-05-03T10:48:21.726Z,199.88
2023-05-03T10:49:22.669Z,198.14
2023-05-03T10:50:22.660Z,202.63
2023-05-03T10:51:21.707Z,203.05
2023-05-03T10:52:22.660Z,202.58
2023-05-03T10:53:22.661Z,203.49
2023-05-03T10:54:22.653Z,202.70
2023-05-03T10:55:21.741Z,198.33
2023-05-03T10:56:22.629Z,195.97
2023-05-03T10:57:22.637Z,197.19
2023-05-03T10:58:21.646Z,198.48
2023-05-03T10:59:22.637Z,198.18
2023-05-03T11:00:22.642Z,196.37
2023-05-03T11:01:21.607Z,196.48
2023-05-03T11:02:22.664Z,196.77
2023-05-03T11:03:21.666Z,194.28
2023-05-03T11:04:21.620Z,196.33
2023-05-03T11:05:21.549Z,192.97
2023-05-03T11:06:22.570Z,191.23
2023-05-03T11:07:22.537Z,189.92
2023-05-03T11:08:21.608Z,196.05
2023-05-03T11:09:21.544Z,189.48
2023-05-03T11:10:22.530Z,191.84
2023-05-03T11:11:22.627Z,192.33
2023-05-03T11:12:22.605Z,187.56
2023-05-03T11:13:21.745Z,184.52
2023-05-03T11:14:21.697Z,188.76
2023-05-03T11:15:22.736Z,185.00
2023-05-03T11:16:22.850Z,188.35
2023-05-03T11:17:21.860Z,185.27
2023-05-03T11:18:21.904Z,186.69
2023-05-03T11:19:22.958Z,188.66
2023-05-03T11:20:23.017Z,184.70
2023-05-03T11:21:23.111Z,180.30
2023-05-03T11:22:22.107Z,181.14
2023-05-03T11:23:23.161Z,186.54
2023-05-03T11:24:23.222Z,183.89
2023-05-03T11:25:22.235Z,177.89
2023-05-03T11:26:23.303Z,181.55
2023-05-03T11:27:23.370Z,180.22
2023-05-03T11:28:22.379Z,179.33
2023-05-03T11:29:22.448Z,174.90
2023-05-03T11:30:23.520Z,179.70
2023-05-03T11:31:23.606Z,178.59
2023-05-03T11:32:23.731Z,178.40
2023-05-03T11:33:23.664Z,178.41
2023-05-03T11:34:23.679Z,178.28
2023-05-03T11:35:22.740Z,174.85
2023-05-03T11:36:22.816Z,175.20
2023-05-03T11:37:22.859Z,178.16
2023-05-03T11:38:23.913Z,174.87
2023-05-03T11:39:23.985Z,174.20
2023-05-03T11:40:23.004Z,173.23
2023-05-03T11:41:23.099Z,175.80
2023-05-03T11:42:23.147Z,178.24
2023-05-03T11:43:23.194Z,175.89
2023-05-03T11:44:24.279Z,174.92
2023-05-03T11:45:23.449Z,171.45
2023-05-03T11:46:24.463Z,172.35
2023-05-03T11:47:24.499Z,169.67
2023-05-03T11:48:23.664Z,173.90
2023-05-03T11:49:24.520Z,172.59
2023-05-03T11:50:24.546Z,171.66
2023-05-03T11:51:23.645Z,167.29
2023-05-03T11:52:23.693Z,170.92
2023-05-03T11:53:24.799Z,170.94
2023-05-03T11:54:27.022Z,172.54
2023-05-03T11:55:24.827Z,173.12
2023-05-03T11:56:24.755Z,173.23
2023-05-03T11:57:23.744Z,171.49
2023-05-03T11:58:23.749Z,173.08
2023-05-03T11:59:24.776Z,176.66
2023-05-03T12:00:24.719Z,172.05
2023-05-03T12:01:23.765Z,172.46
2023-05-03T12:02:24.888Z,172.21
2023-05-03T12:03:27.745Z,166.93
2023-05-03T12:04:24.988Z,167.25
2023-05-03T12:05:25.235Z,167.62
2023-05-03T12:06:25.685Z,167.95
2023-05-03T12:07:25.709Z,169.44
2023-05-03T12:08:25.761Z,170.54
2023-05-03T12:09:26.009Z,167.28
2023-05-03T12:10:26.740Z,168.02
2023-05-03T12:11:27.001Z,167.42
2023-05-03T12:12:27.320Z,167.39
2023-05-03T12:13:25.462Z,167.50
2023-05-03T12:14:24.927Z,168.14
2023-05-03T12:15:26.455Z,168.90
2023-05-03T12:16:24.884Z,170.30
2023-05-03T12:17:23.990Z,173.81
2023-05-03T12:18:24.065Z,167.57
2023-05-03T12:19:24.185Z,171.21
2023-05-03T12:22:26.303Z,169.45
2023-05-03T12:23:26.548Z,169.58
2023-05-03T12:24:25.018Z,169.65
2023-05-03T12:25:26.132Z,169.55
2023-05-03T12:26:23.845Z,169.47
2023-05-03T12:27:25.961Z,170.02
2023-05-03T12:28:24.751Z,170.14
2023-05-03T12:29:24.084Z,171.42
2023-05-03T12:30:23.974Z,174.82
2023-05-03T12:31:25.337Z,175.25
2023-05-03T12:32:24.748Z,169.82
2023-05-03T12:33:23.889Z,170.28
2023-05-03T12:34:32.416Z,170.91
2023-05-03T12:35:27.638Z,169.69
2023-05-03T12:36:26.210Z,169.50
2023-05-03T12:37:27.165Z,170.03
2023-05-03T12:38:25.420Z,169.82
2023-05-03T12:39:27.178Z,170.19
2023-05-03T12:40:33.204Z,169.65
2023-05-03T12:41:52.020Z,169.68
2023-05-03T12:42:26.349Z,169.90
2023-05-03T12:43:23.723Z,170.02
2023-05-03T12:44:25.454Z,170.23
2023-05-03T12:45:23.957Z,169.65
2023-05-03T12:46:33.914Z,169.99
2023-05-03T12:47:28.929Z,169.66
2023-05-03T12:48:23.804Z,169.71
2023-05-03T12:49:24.017Z,170.47
2023-05-03T12:50:25.077Z,170.34
2023-05-03T12:51:25.902Z,170.40
2023-05-03T12:53:26.045Z,169.65
2023-05-03T12:54:26.964Z,169.46
2023-05-03T12:55:25.656Z,169.68
2023-05-03T12:56:25.667Z,169.69
2023-05-03T12:57:24.516Z,170.01
2023-05-03T12:58:51.941Z,168.30
2023-05-03T13:00:25.718Z,169.91
2023-05-03T13:02:05.008Z,169.76
2023-05-03T13:03:29.320Z,169.39
2023-05-03T13:05:34.552Z,169.55
2023-05-03T13:06:24.858Z,169.68
2023-05-03T13:07:28.103Z,169.22
2023-05-03T13:08:32.980Z,169.47
2023-05-03T13:09:37.130Z,169.58
2023-05-03T13:10:24.814Z,169.87
2023-05-03T13:11:24.670Z,170.42
2023-05-03T13:12:23.566Z,170.78
2023-05-03T13:13:24.575Z,169.65
2023-05-03T13:14:23.559Z,168.87
2023-05-03T13:15:24.554Z,171.32
2023-05-03T13:16:23.595Z,173.59
2023-05-03T13:17:23.862Z,165.56
2023-05-03T13:18:23.552Z,161.04
2023-05-03T13:19:23.532Z,167.24
2023-05-03T13:20:24.507Z,164.05
2023-05-03T13:21:23.506Z,167.76
2023-05-03T13:22:24.500Z,164.71
2023-05-03T13:23:23.466Z,166.25
2023-05-03T13:24:23.505Z,166.06
2023-05-03T13:25:24.458Z,166.10
2023-05-03T13:26:24.455Z,167.45
2023-05-03T13:27:24.450Z,168.39
2023-05-03T13:28:24.431Z,168.79
2023-05-03T13:29:24.445Z,165.33
2023-05-03T13:30:24.437Z,166.53
2023-05-03T13:31:24.489Z,164.23
2023-05-03T13:32:23.469Z,168.78
2023-05-03T13:33:24.429Z,164.02
2023-05-03T13:34:24.455Z,164.81
2023-05-03T13:35:23.518Z,165.51
2023-05-03T13:36:24.391Z,163.32
2023-05-03T13:37:24.379Z,164.64
2023-05-03T13:38:24.433Z,165.90
2023-05-03T13:39:24.415Z,166.72
2023-05-03T13:40:23.429Z,164.09
2023-05-03T13:41:24.537Z,165.86
2023-05-03T13:42:24.528Z,162.56
2023-05-03T13:43:24.533Z,170.59
2023-05-03T13:44:24.578Z,165.05
2023-05-03T13:45:23.609Z,167.71
2023-05-03T13:46:24.693Z,167.15
2023-05-03T13:47:23.738Z,166.78
2023-05-03T13:48:23.713Z,167.54
2023-05-03T13:49:24.737Z,167.56
2023-05-03T13:50:24.764Z,170.81
2023-05-03T13:51:23.911Z,178.21
2023-05-03T13:52:23.822Z,169.39
2023-05-03T13:53:23.866Z,170.01
2023-05-03T13:54:23.891Z,167.37
2023-05-03T13:55:24.912Z,170.35
2023-05-03T13:56:24.954Z,174.52
2023-05-03T13:57:24.992Z,168.34
2023-05-03T13:58:24.985Z,173.47
2023-05-03T13:59:25.018Z,171.54
2023-05-03T14:00:24.035Z,170.01
2023-05-03T14:01:24.079Z,172.30
2023-05-03T14:02:25.121Z,172.01
2023-05-03T14:03:24.303Z,168.37
2023-05-03T14:04:25.351Z,171.64
2023-05-03T14:05:24.177Z,169.79
2023-05-03T14:06:24.387Z,170.24
2023-05-03T14:07:24.224Z,166.46
2023-05-03T14:08:25.238Z,169.31
2023-05-03T14:09:25.271Z,167.27
2023-05-03T14:10:24.368Z,164.10
2023-05-03T14:11:24.306Z,164.92
2023-05-03T14:12:25.342Z,171.60
2023-05-03T14:13:24.402Z,168.67
2023-05-03T14:14:24.397Z,167.31
2023-05-03T14:15:24.401Z,164.51
2023-05-03T14:16:39.326Z,165.68
2023-05-03T14:17:25.454Z,165.79
2023-05-03T14:18:25.452Z,166.80
2023-05-03T14:19:25.428Z,166.41
2023-05-03T14:20:24.392Z,165.78
2023-05-03T14:21:25.353Z,169.25
2023-05-03T14:22:24.366Z,164.83
2023-05-03T14:23:25.394Z,167.59
2023-05-03T14:24:25.357Z,165.05
2023-05-03T14:25:24.334Z,162.28
2023-05-03T14:26:25.346Z,165.21
2023-05-03T14:27:25.321Z,164.16
2023-05-03T14:28:25.304Z,163.29
2023-05-03T14:29:25.360Z,170.46
2023-05-03T14:30:25.310Z,169.10
2023-05-03T14:31:25.342Z,168.65
2023-05-03T14:32:24.346Z,168.97
2023-05-03T14:33:24.283Z,165.90
2023-05-03T14:34:25.304Z,161.31
2023-05-03T14:35:24.255Z,162.94
2023-05-03T14:36:24.277Z,161.69
2023-05-03T14:37:24.278Z,166.48
2023-05-03T14:38:25.236Z,168.82
2023-05-03T14:39:24.260Z,166.80
2023-05-03T14:40:24.220Z,164.66
2023-05-03T14:41:25.246Z,166.00
2023-05-03T14:42:25.209Z,163.97
2023-05-03T14:43:24.199Z,165.56
2023-05-03T14:44:25.293Z,164.24
2023-05-03T14:45:25.202Z,161.79
2023-05-03T14:46:24.228Z,164.00
2023-05-03T14:47:25.313Z,162.23
2023-05-03T14:48:24.255Z,170.21
2023-05-03T14:49:25.220Z,162.26
2023-05-03T14:50:25.282Z,162.20
2023-05-03T14:51:25.245Z,163.35
2023-05-03T14:52:25.247Z,161.31
2023-05-03T14:53:25.235Z,162.67
2023-05-03T14:54:24.234Z,165.73
2023-05-03T14:55:25.321Z,164.76
2023-05-03T14:56:25.294Z,161.76
2023-05-03T14:57:25.262Z,165.05
2023-05-03T14:58:25.266Z,161.09
2023-05-03T14:59:24.259Z,162.40
2023-05-03T15:00:25.280Z,158.97
2023-05-03T15:01:24.360Z,164.71
2023-05-03T15:02:24.323Z,162.77
2023-05-03T15:03:25.327Z,164.47
2023-05-03T15:04:25.297Z,163.41
2023-05-03T15:05:24.301Z,160.62
2023-05-03T15:06:25.324Z,160.86
2023-05-03T15:07:24.297Z,161.15
2023-05-03T15:08:25.351Z,158.16
2023-05-03T15:09:25.334Z,163.64
2023-05-03T15:10:24.331Z,160.32
2023-05-03T15:11:24.387Z,163.95
2023-05-03T15:12:25.329Z,160.66
2023-05-03T15:13:25.645Z,162.31
2023-05-03T15:14:25.431Z,161.54
2023-05-03T15:15:24.342Z,155.22
2023-05-03T15:16:24.333Z,162.00
2023-05-03T15:17:25.342Z,158.11
2023-05-03T15:18:24.413Z,160.60
2023-05-03T15:19:25.339Z,158.36
2023-05-03T15:20:25.356Z,166.35
2023-05-03T15:21:25.331Z,161.23
2023-05-03T15:22:24.383Z,161.15
2023-05-03T15:23:24.331Z,159.48
2023-05-03T15:24:24.320Z,160.85
2023-05-03T15:25:25.328Z,157.90
2023-05-03T15:26:24.416Z,158.73
2023-05-03T15:27:24.411Z,162.81
2023-05-03T15:28:24.313Z,162.56
2023-05-03T15:29:25.362Z,163.20
